createdAt,value
2022-11-05T00:02:42.333Z,95884.91
2022-11-05T00:08:06.108Z,95868.38
2022-11-05T00:13:27.734Z,95837.88
2022-11-05T00:18:31.981Z,95861.56
2022-11-05T00:23:54.730Z,95841.56
2022-11-05T00:28:57.841Z,95829.50
2022-11-05T00:34:01.809Z,95769.22
2022-11-05T00:39:06.869Z,95736.94
2022-11-05T00:44:26.912Z,95696.25
2022-11-05T00:49:30.838Z,95711.44
2022-11-05T00:54:33.472Z,95764.88
2022-11-05T00:59:36.093Z,95822.31
2022-11-05T01:04:40.050Z,95839.03
2022-11-05T01:09:42.619Z,95818.84
2022-11-05T01:14:45.206Z,95972.66
2022-11-05T01:19:49.129Z,96004.44
2022-11-05T01:24:51.699Z,96064.88
2022-11-05T01:29:54.291Z,96085.75
2022-11-05T01:34:58.198Z,96090.19
2022-11-05T01:40:01.023Z,96098.13
2022-11-05T01:45:12.306Z,96077.28
2022-11-05T01:50:24.222Z,96066.59
2022-11-05T01:55:27.998Z,96156.56
2022-11-05T02:00:31.390Z,96172.38
2022-11-05T02:05:36.218Z,96181.16
2022-11-05T02:10:38.956Z,96215.31
2022-11-05T02:15:49.529Z,96185.63
2022-11-05T02:20:59.477Z,96176.00
2022-11-05T02:26:36.898Z,96165.50
2022-11-05T02:31:44.322Z,96188.28
2022-11-05T02:36:50.952Z,96187.41
2022-11-05T02:42:09.207Z,96203.13
2022-11-05T02:47:20.598Z,96214.47
2022-11-05T02:52:29.310Z,96211.84
2022-11-05T02:57:35.946Z,96207.50
2022-11-05T03:02:40.017Z,96190.13
2022-11-05T03:07:47.597Z,96167.38
2022-11-05T03:12:59.680Z,96174.44
2022-11-05T03:18:11.298Z,96195.44
2022-11-05T03:23:26.845Z,96181.44
2022-11-05T03:28:32.040Z,96241.78
2022-11-05T03:33:37.644Z,96234.84
2022-11-05T03:38:41.196Z,96245.28
2022-11-05T03:43:46.686Z,96211.19
2022-11-05T03:48:52.975Z,96199.94
2022-11-05T03:53:57.426Z,96193.78
2022-11-05T03:59:00.897Z,96187.69
2022-11-05T04:04:05.585Z,96206.91
2022-11-05T04:09:37.428Z,96233.09
2022-11-05T04:14:40.119Z,96283.66
2022-11-05T04:20:02.772Z,96291.53
2022-11-05T04:25:06.702Z,96225.28
2022-11-05T04:30:19.337Z,96245.34
2022-11-05T04:35:23.501Z,96208.66
2022-11-05T04:40:26.394Z,96236.63
2022-11-05T04:45:30.634Z,96239.25
2022-11-05T04:50:34.614Z,96226.19
2022-11-05T04:55:37.200Z,96301.16
2022-11-05T05:00:39.834Z,96311.63
2022-11-05T05:05:43.762Z,96327.38
2022-11-05T05:10:46.339Z,96351.00
2022-11-05T05:15:48.911Z,96371.06
2022-11-05T05:21:10.138Z,96413.81
2022-11-05T05:26:12.780Z,96426.88
2022-11-05T05:31:15.589Z,96455.59
2022-11-05T05:36:19.526Z,96477.41
2022-11-05T05:41:22.130Z,96470.44
2022-11-05T05:46:25.043Z,96480.03
2022-11-05T05:51:28.983Z,96484.34
2022-11-05T05:56:31.579Z,96507.88
2022-11-05T06:01:34.413Z,96500.03
2022-11-05T06:06:38.424Z,96487.00
2022-11-05T06:11:41.156Z,96554.94
2022-11-05T06:16:43.752Z,96616.75
2022-11-05T06:21:47.666Z,96680.31
2022-11-05T06:26:50.265Z,96718.63
2022-11-05T06:31:52.894Z,96763.91
2022-11-05T06:36:56.812Z,96796.94
2022-11-05T06:47:22.114Z,96795.25
2022-11-05T06:52:27.092Z,96798.69
2022-11-05T06:57:30.743Z,96823.94
2022-11-05T07:02:33.416Z,96821.34
2022-11-05T07:07:37.458Z,96823.97
2022-11-05T07:12:40.031Z,96844.00
2022-11-05T07:17:42.635Z,96844.03
2022-11-05T07:22:46.541Z,96853.63
2022-11-05T07:27:49.134Z,96867.56
2022-11-05T07:32:51.732Z,96891.97
2022-11-05T07:37:56.310Z,96891.19
2022-11-05T07:42:59.868Z,96880.72
2022-11-05T07:48:04.224Z,96869.44
2022-11-05T07:53:10.937Z,96838.94
2022-11-05T07:58:14.114Z,96825.88
2022-11-05T08:03:18.571Z,96814.53
2022-11-05T08:08:22.985Z,96796.22
2022-11-05T08:13:25.559Z,96721.13
2022-11-05T08:18:31.366Z,96416.91
2022-11-05T08:23:35.300Z,96393.41
2022-11-05T08:28:37.893Z,96344.34
2022-11-05T08:33:40.492Z,96475.31
2022-11-05T08:38:44.443Z,96477.19
2022-11-05T08:43:47.137Z,96501.66
2022-11-05T08:48:49.861Z,96503.41
2022-11-05T08:53:53.757Z,96541.78
2022-11-05T08:58:56.352Z,96553.06
2022-11-05T09:03:58.914Z,96535.44
2022-11-05T09:09:02.815Z,96513.38
2022-11-05T09:14:05.374Z,96518.63
2022-11-05T09:19:07.912Z,96490.41
2022-11-05T09:24:11.855Z,96479.78
2022-11-05T09:29:14.739Z,96495.53
2022-11-05T09:34:17.405Z,96457.63
2022-11-05T09:39:21.364Z,96457.53
2022-11-05T09:44:27.289Z,96441.50
2022-11-05T09:49:35.082Z,96421.06
2022-11-05T09:54:40.053Z,96445.56
2022-11-05T09:59:45.898Z,96457.72
2022-11-05T10:04:51.396Z,96447.00
2022-11-05T10:09:59.115Z,96460.78
2022-11-05T10:15:08.254Z,96427.09
2022-11-05T10:20:15.962Z,96442.00
2022-11-05T10:25:21.704Z,96438.97
2022-11-05T10:30:24.374Z,96477.69
2022-11-05T10:35:30.634Z,96488.78
2022-11-05T10:40:40.699Z,96531.19
2022-11-05T10:45:49.871Z,96531.09
2022-11-05T10:50:52.489Z,96537.25
2022-11-05T10:55:58.361Z,96550.06
2022-11-05T11:01:04.927Z,96556.56
2022-11-05T11:06:19.309Z,96621.19
2022-11-05T11:11:33.989Z,96743.13
2022-11-05T11:16:39.092Z,96847.97
2022-11-05T11:21:41.714Z,96889.53
2022-11-05T11:26:45.652Z,96942.22
2022-11-05T11:31:48.245Z,96973.16
2022-11-05T11:36:52.435Z,97034.59
2022-11-05T11:41:59.015Z,97085.50
2022-11-05T11:47:04.665Z,97172.53
2022-11-05T11:52:19.696Z,97275.66
2022-11-05T11:57:26.033Z,97280.06
2022-11-05T12:02:42.118Z,97271.78
2022-11-05T12:07:52.726Z,97306.75
2022-11-05T12:13:17.656Z,97361.00
2022-11-05T12:18:26.529Z,97392.59
2022-11-05T12:23:44.116Z,97454.19
2022-11-05T12:29:18.724Z,97547.13
2022-11-05T12:34:34.614Z,97661.22
2022-11-05T12:39:45.237Z,97816.91
2022-11-05T12:44:56.385Z,97913.59
2022-11-05T12:50:11.288Z,97948.81
2022-11-05T12:55:16.776Z,98009.44
2022-11-05T13:00:22.251Z,98085.91
2022-11-05T13:05:31.050Z,98170.28
2022-11-05T13:10:36.340Z,98374.13
2022-11-05T13:15:50.777Z,99087.81
2022-11-05T13:20:54.702Z,99346.19
2022-11-05T13:26:01.198Z,99471.91
2022-11-05T13:31:09.171Z,99597.31
2022-11-05T13:36:33.382Z,99594.72
2022-11-05T13:41:47.829Z,99727.16
2022-11-05T13:47:04.008Z,99872.00
2022-11-05T13:52:28.032Z,100001.53
2022-11-05T13:57:49.811Z,100018.66
2022-11-05T14:02:55.333Z,100119.72
2022-11-05T14:07:59.235Z,100216.75
2022-11-05T14:13:26.322Z,100262.75
2022-11-05T14:18:39.467Z,100302.78
2022-11-05T14:23:50.725Z,100334.53
2022-11-05T14:29:26.089Z,100380.19
2022-11-05T14:34:45.157Z,100531.34
2022-11-05T14:39:48.044Z,100564.44
2022-11-05T14:45:02.521Z,100577.84
2022-11-05T14:50:12.210Z,100578.47
2022-11-05T14:55:27.414Z,100604.81
2022-11-05T15:00:51.169Z,100622.13
2022-11-05T15:06:05.268Z,100634.09
2022-11-05T15:11:13.831Z,100622.78
2022-11-05T15:16:21.518Z,100633.53
2022-11-05T15:21:25.860Z,100631.03
2022-11-05T15:26:37.361Z,100618.31
2022-11-05T15:31:41.205Z,100625.75
2022-11-05T15:36:50.104Z,100610.94
2022-11-05T15:41:52.678Z,100626.66
2022-11-05T15:47:15.690Z,100624.47
2022-11-05T15:52:20.976Z,100619.19
2022-11-05T15:57:26.631Z,100622.72
2022-11-05T16:02:32.382Z,100626.75
2022-11-05T16:07:36.555Z,100623.81
2022-11-05T16:12:39.133Z,100626.81
2022-11-05T16:17:47.615Z,100634.63
2022-11-05T16:22:53.725Z,100633.88
2022-11-05T16:27:56.810Z,100631.09
2022-11-05T16:33:07.525Z,100633.59
2022-11-05T16:38:13.682Z,100637.28
2022-11-05T16:43:19.235Z,100640.13
2022-11-05T16:48:22.108Z,100641.38
2022-11-05T16:53:26.010Z,100632.44
2022-11-05T16:58:28.610Z,100639.91
2022-11-05T17:03:31.210Z,100632.50
2022-11-05T17:08:35.180Z,100631.53
2022-11-05T17:13:37.796Z,100634.44
2022-11-05T17:18:41.120Z,100627.78
2022-11-05T17:23:45.612Z,100633.06
2022-11-05T17:28:48.237Z,100631.25
2022-11-05T17:33:50.789Z,100628.91
2022-11-05T17:38:54.936Z,100625.88
2022-11-05T17:43:58.499Z,100642.81
2022-11-05T17:49:01.087Z,100637.34
2022-11-05T17:54:05.033Z,100630.56
2022-11-05T17:59:07.616Z,100629.47
2022-11-05T18:04:10.250Z,100628.50
2022-11-05T18:09:14.356Z,100621.50
2022-11-05T18:14:22.828Z,100618.94
2022-11-05T18:19:26.959Z,100607.31
2022-11-05T18:24:30.911Z,100600.25
2022-11-05T18:29:33.505Z,100604.53
2022-11-05T18:34:36.660Z,100604.22
2022-11-05T18:39:40.862Z,100606.84
2022-11-05T18:44:43.444Z,100607.59
2022-11-05T18:49:46.034Z,100618.84
2022-11-05T18:54:49.987Z,100612.84
2022-11-05T18:59:52.595Z,100597.81
2022-11-05T19:05:26.834Z,100595.34
2022-11-05T19:10:19.337Z,100595.84
2022-11-05T19:15:21.931Z,100580.06
2022-11-05T19:20:24.579Z,100591.50
2022-11-05T19:25:29.539Z,100596.03
2022-11-05T19:30:32.158Z,100588.06
2022-11-05T19:35:40.890Z,100592.41
2022-11-05T19:40:45.162Z,100589.53
2022-11-05T19:45:47.737Z,100581.09
2022-11-05T19:50:53.143Z,100590.59
2022-11-05T19:55:57.063Z,100589.78
2022-11-05T20:00:59.746Z,100594.94
2022-11-05T20:06:03.184Z,100589.38
2022-11-05T20:11:07.944Z,100590.28
2022-11-05T20:16:20.293Z,100579.69
2022-11-05T20:21:22.945Z,100573.53
2022-11-05T20:26:27.010Z,100560.41
2022-11-05T20:31:29.596Z,100563.69
2022-11-05T20:36:32.202Z,100557.72
2022-11-05T20:41:36.159Z,100537.59
2022-11-05T20:46:39.058Z,100536.50
2022-11-05T20:51:41.648Z,100530.28
2022-11-05T20:56:45.561Z,100532.97
2022-11-05T21:01:48.277Z,100528.41
2022-11-05T21:06:51.030Z,100519.47
2022-11-05T21:12:13.103Z,100519.41
2022-11-05T21:17:15.890Z,100522.94
2022-11-05T21:22:18.466Z,100488.59
2022-11-05T21:27:22.384Z,100478.84
2022-11-05T21:32:24.953Z,100467.44
2022-11-05T21:37:27.709Z,100459.47
2022-11-05T21:42:31.724Z,100449.78
2022-11-05T21:47:34.548Z,100450.53
2022-11-05T21:52:54.586Z,100447.03
2022-11-05T21:58:15.868Z,100432.91
2022-11-05T22:03:18.496Z,100399.00
2022-11-05T22:08:21.064Z,100241.19
2022-11-05T22:13:25.025Z,100215.91
2022-11-05T22:18:27.595Z,100209.88
2022-11-05T22:23:30.174Z,100191.41
2022-11-05T22:28:34.100Z,100190.59
2022-11-05T22:33:36.927Z,100198.53
2022-11-05T22:38:39.933Z,100200.19
2022-11-05T22:43:43.896Z,100203.72
2022-11-05T22:48:46.715Z,100200.28
2022-11-05T22:53:49.949Z,100209.81
2022-11-05T22:58:54.356Z,100195.66
2022-11-05T23:03:58.260Z,100213.25
2022-11-05T23:09:21.217Z,100201.78
2022-11-05T23:14:25.449Z,100198.16
2022-11-05T23:19:45.373Z,100177.94
2022-11-05T23:24:48.412Z,100178.81
2022-11-05T23:29:52.338Z,100161.28
2022-11-05T23:34:57.490Z,100157.81
2022-11-05T23:40:00.105Z,100150.75
2022-11-05T23:45:21.881Z,100134.84
2022-11-05T23:50:25.217Z,100138.31
2022-11-05T23:55:27.902Z,100139.66
